sensor_id;sensor_type;location;lat;lon;timestamp;pressure;altitude;pressure_sealevel;temperature;humidity
21817;BME280;13247;47.504;7.382;2023-05-22T00:01:15;97005.22;;;16.15;100.00
21817;BME280;13247;47.504;7.382;2023-05-22T00:04:02;97011.66;;;16.25;100.00
21817;BME280;13247;47.504;7.382;2023-05-22T00:06:48;97011.13;;;16.05;100.00
21817;BME280;13247;47.504;7.382;2023-05-22T00:09:33;97006.63;;;16.21;100.00
21817;BME280;13247;47.504;7.382;2023-05-22T00:12:17;97001.06;;;16.25;100.00
21817;BME280;13247;47.504;7.382;2023-05-22T00:15:03;96997.13;;;16.32;100.00
21817;BME280;13247;47.504;7.382;2023-05-22T00:17:48;97000.22;;;16.39;100.00
21817;BME280;13247;47.504;7.382;2023-05-22T00:20:33;97004.50;;;16.41;100.00
21817;BME280;13247;47.504;7.382;2023-05-22T00:23:22;97000.34;;;16.37;100.00
21817;BME280;13247;47.504;7.382;2023-05-22T00:26:07;96997.31;;;16.00;100.00
21817;BME280;13247;47.504;7.382;2023-05-22T00:28:51;96987.03;;;16.09;100.00
21817;BME280;13247;47.504;7.382;2023-05-22T00:31:36;96996.22;;;15.88;100.00
21817;BME280;13247;47.504;7.382;2023-05-22T00:34:21;96983.28;;;16.13;100.00
21817;BME280;13247;47.504;7.382;2023-05-22T00:37:05;96983.09;;;16.30;100.00
21817;BME280;13247;47.504;7.382;2023-05-22T00:39:50;96965.81;;;16.25;100.00
21817;BME280;13247;47.504;7.382;2023-05-22T00:42:35;96966.34;;;15.86;100.00
21817;BME280;13247;47.504;7.382;2023-05-22T00:45:19;96981.41;;;15.70;100.00
21817;BME280;13247;47.504;7.382;2023-05-22T00:48:06;96970.59;;;16.04;100.00
21817;BME280;13247;47.504;7.382;2023-05-22T00:50:54;96955.59;;;16.19;100.00
21817;BME280;13247;47.504;7.382;2023-05-22T00:53:40;96958.25;;;16.19;100.00
21817;BME280;13247;47.504;7.382;2023-05-22T00:56:25;96970.63;;;16.18;100.00
21817;BME280;13247;47.504;7.382;2023-05-22T00:59:10;96980.03;;;15.63;100.00
21817;BME280;13247;47.504;7.382;2023-05-22T01:01:55;96985.34;;;15.63;100.00
21817;BME280;13247;47.504;7.382;2023-05-22T01:04:44;96980.53;;;15.85;100.00
21817;BME280;13247;47.504;7.382;2023-05-22T01:07:33;96988.69;;;15.66;100.00
21817;BME280;13247;47.504;7.382;2023-05-22T01:10:21;96984.72;;;15.42;100.00
21817;BME280;13247;47.504;7.382;2023-05-22T01:19:37;96991.91;;;14.76;100.00
21817;BME280;13247;47.504;7.382;2023-05-22T01:28:38;96989.41;;;15.22;100.00
21817;BME280;13247;47.504;7.382;2023-05-22T01:31:30;96986.44;;;15.28;100.00
21817;BME280;13247;47.504;7.382;2023-05-22T01:34:16;96988.56;;;15.06;100.00
21817;BME280;13247;47.504;7.382;2023-05-22T01:37:04;96990.41;;;14.88;100.00
21817;BME280;13247;47.504;7.382;2023-05-22T01:39:51;96998.78;;;15.27;100.00
21817;BME280;13247;47.504;7.382;2023-05-22T01:42:36;96999.91;;;15.39;100.00
21817;BME280;13247;47.504;7.382;2023-05-22T01:45:21;96998.69;;;15.46;100.00
21817;BME280;13247;47.504;7.382;2023-05-22T01:48:05;96993.09;;;15.50;100.00
21817;BME280;13247;47.504;7.382;2023-05-22T01:50:51;96993.19;;;15.49;100.00
21817;BME280;13247;47.504;7.382;2023-05-22T01:53:49;96996.09;;;15.44;100.00
21817;BME280;13247;47.504;7.382;2023-05-22T01:56:52;97012.25;;;14.74;100.00
21817;BME280;13247;47.504;7.382;2023-05-22T01:59:53;97005.38;;;14.72;100.00
21817;BME280;13247;47.504;7.382;2023-05-22T02:02:42;97007.44;;;14.82;100.00
21817;BME280;13247;47.504;7.382;2023-05-22T02:05:29;97013.41;;;15.02;100.00
21817;BME280;13247;47.504;7.382;2023-05-22T02:08:17;97013.44;;;15.17;100.00
21817;BME280;13247;47.504;7.382;2023-05-22T02:11:04;97017.88;;;15.32;100.00
21817;BME280;13247;47.504;7.382;2023-05-22T02:13:49;97025.63;;;15.20;100.00
21817;BME280;13247;47.504;7.382;2023-05-22T02:16:34;97016.00;;;15.03;100.00
21817;BME280;13247;47.504;7.382;2023-05-22T02:19:21;97021.84;;;14.92;100.00
21817;BME280;13247;47.504;7.382;2023-05-22T02:22:06;97021.22;;;14.87;100.00
21817;BME280;13247;47.504;7.382;2023-05-22T02:24:53;97014.97;;;15.06;100.00
21817;BME280;13247;47.504;7.382;2023-05-22T02:27:38;97019.16;;;15.10;100.00
21817;BME280;13247;47.504;7.382;2023-05-22T02:30:23;97022.56;;;15.12;100.00
21817;BME280;13247;47.504;7.382;2023-05-22T02:33:08;97013.09;;;15.08;100.00
21817;BME280;13247;47.504;7.382;2023-05-22T02:35:52;97013.34;;;15.03;100.00
21817;BME280;13247;47.504;7.382;2023-05-22T02:38:38;97017.19;;;14.80;100.00
21817;BME280;13247;47.504;7.382;2023-05-22T02:41:23;97016.91;;;14.86;100.00
21817;BME280;13247;47.504;7.382;2023-05-22T02:44:08;97007.75;;;14.76;100.00
21817;BME280;13247;47.504;7.382;2023-05-22T02:46:53;97010.59;;;14.22;100.00
21817;BME280;13247;47.504;7.382;2023-05-22T02:49:37;97008.25;;;14.16;100.00
21817;BME280;13247;47.504;7.382;2023-05-22T02:52:22;97006.72;;;14.46;100.00
21817;BME280;13247;47.504;7.382;2023-05-22T02:55:07;97003.28;;;14.61;100.00
21817;BME280;13247;47.504;7.382;2023-05-22T02:57:52;97004.09;;;14.79;100.00
21817;BME280;13247;47.504;7.382;2023-05-22T03:00:37;97007.50;;;14.81;100.00
21817;BME280;13247;47.504;7.382;2023-05-22T03:03:22;97001.44;;;14.79;100.00
21817;BME280;13247;47.504;7.382;2023-05-22T03:06:08;96996.25;;;14.77;100.00
21817;BME280;13247;47.504;7.382;2023-05-22T03:08:53;96990.41;;;14.88;100.00
21817;BME280;13247;47.504;7.382;2023-05-22T03:11:38;96996.03;;;14.82;100.00
21817;BME280;13247;47.504;7.382;2023-05-22T03:14:22;96996.16;;;14.63;100.00
21817;BME280;13247;47.504;7.382;2023-05-22T03:17:07;96995.16;;;14.81;100.00
21817;BME280;13247;47.504;7.382;2023-05-22T03:19:51;96992.00;;;14.42;100.00
21817;BME280;13247;47.504;7.382;2023-05-22T03:22:36;96993.69;;;14.43;100.00
21817;BME280;13247;47.504;7.382;2023-05-22T03:25:20;96990.13;;;14.44;100.00
21817;BME280;13247;47.504;7.382;2023-05-22T03:28:05;96987.41;;;14.46;100.00
21817;BME280;13247;47.504;7.382;2023-05-22T03:30:49;96987.47;;;14.27;100.00
21817;BME280;13247;47.504;7.382;2023-05-22T03:33:34;96983.88;;;14.28;100.00
21817;BME280;13247;47.504;7.382;2023-05-22T03:36:19;96990.06;;;14.29;100.00
21817;BME280;13247;47.504;7.382;2023-05-22T03:39:04;96993.22;;;14.35;100.00
21817;BME280;13247;47.504;7.382;2023-05-22T03:41:50;96986.41;;;14.31;100.00
21817;BME280;13247;47.504;7.382;2023-05-22T03:44:34;96989.34;;;14.25;100.00
21817;BME280;13247;47.504;7.382;2023-05-22T03:47:19;96993.53;;;14.12;100.00
21817;BME280;13247;47.504;7.382;2023-05-22T03:50:04;96985.22;;;14.19;100.00
21817;BME280;13247;47.504;7.382;2023-05-22T03:52:49;96988.41;;;14.43;100.00
21817;BME280;13247;47.504;7.382;2023-05-22T03:55:33;96987.31;;;14.47;100.00
21817;BME280;13247;47.504;7.382;2023-05-22T03:58:18;96991.16;;;14.57;100.00
21817;BME280;13247;47.504;7.382;2023-05-22T04:01:03;96988.09;;;14.49;100.00
21817;BME280;13247;47.504;7.382;2023-05-22T04:03:48;96984.34;;;14.53;100.00
21817;BME280;13247;47.504;7.382;2023-05-22T04:06:33;96995.34;;;14.29;100.00
21817;BME280;13247;47.504;7.382;2023-05-22T04:09:26;97000.47;;;14.32;100.00
21817;BME280;13247;47.504;7.382;2023-05-22T04:12:11;97000.69;;;14.44;100.00
21817;BME280;13247;47.504;7.382;2023-05-22T04:14:55;97002.53;;;14.42;100.00
21817;BME280;13247;47.504;7.382;2023-05-22T04:17:41;97003.00;;;14.33;100.00
21817;BME280;13247;47.504;7.382;2023-05-22T04:20:26;97008.59;;;14.44;100.00
21817;BME280;13247;47.504;7.382;2023-05-22T04:23:10;97006.50;;;14.51;100.00
21817;BME280;13247;47.504;7.382;2023-05-22T04:25:56;97010.72;;;14.53;100.00
21817;BME280;13247;47.504;7.382;2023-05-22T04:28:41;97005.13;;;14.59;100.00
21817;BME280;13247;47.504;7.382;2023-05-22T04:31:32;97009.81;;;14.54;100.00
21817;BME280;13247;47.504;7.382;2023-05-22T04:34:17;97016.94;;;14.69;100.00
21817;BME280;13247;47.504;7.382;2023-05-22T04:37:03;97010.13;;;14.81;100.00
21817;BME280;13247;47.504;7.382;2023-05-22T04:39:48;97012.78;;;14.81;100.00
21817;BME280;13247;47.504;7.382;2023-05-22T04:42:37;97016.69;;;14.74;100.00
21817;BME280;13247;47.504;7.382;2023-05-22T04:45:21;97014.06;;;14.74;100.00
21817;BME280;13247;47.504;7.382;2023-05-22T04:48:08;97013.53;;;14.67;100.00
21817;BME280;13247;47.504;7.382;2023-05-22T04:50:56;97022.91;;;14.73;100.00
21817;BME280;13247;47.504;7.382;2023-05-22T04:53:41;97025.44;;;14.74;100.00
21817;BME280;13247;47.504;7.382;2023-05-22T04:56:27;97021.84;;;14.92;100.00
21817;BME280;13247;47.504;7.382;2023-05-22T04:59:11;97023.72;;;14.90;100.00
21817;BME280;13247;47.504;7.382;2023-05-22T05:01:59;97031.31;;;14.97;100.00
21817;BME280;13247;47.504;7.382;2023-05-22T05:04:44;97029.59;;;14.95;100.00
21817;BME280;13247;47.504;7.382;2023-05-22T05:07:30;97030.28;;;14.99;100.00
21817;BME280;13247;47.504;7.382;2023-05-22T05:10:14;97039.09;;;15.15;100.00
21817;BME280;13247;47.504;7.382;2023-05-22T05:12:59;97033.22;;;15.26;100.00
21817;BME280;13247;47.504;7.382;2023-05-22T05:15:44;97022.34;;;15.63;100.00
21817;BME280;13247;47.504;7.382;2023-05-22T05:18:29;97024.38;;;15.73;100.00
21817;BME280;13247;47.504;7.382;2023-05-22T05:21:13;97029.16;;;15.83;100.00
21817;BME280;13247;47.504;7.382;2023-05-22T05:23:59;97013.53;;;15.94;100.00
21817;BME280;13247;47.504;7.382;2023-05-22T05:26:44;97015.03;;;16.13;100.00
21817;BME280;13247;47.504;7.382;2023-05-22T05:29:31;97013.03;;;16.17;100.00
21817;BME280;13247;47.504;7.382;2023-05-22T05:32:16;97006.53;;;16.22;100.00
21817;BME280;13247;47.504;7.382;2023-05-22T05:35:00;97014.44;;;16.38;100.00
21817;BME280;13247;47.504;7.382;2023-05-22T05:37:45;97012.63;;;16.38;100.00
21817;BME280;13247;47.504;7.382;2023-05-22T05:40:30;97006.13;;;16.44;100.00
21817;BME280;13247;47.504;7.382;2023-05-22T05:43:15;97003.63;;;16.71;100.00
21817;BME280;13247;47.504;7.382;2023-05-22T05:45:59;97006.69;;;16.79;100.00
21817;BME280;13247;47.504;7.382;2023-05-22T05:48:45;97004.28;;;17.02;100.00
21817;BME280;13247;47.504;7.382;2023-05-22T05:51:30;97006.09;;;17.16;100.00
21817;BME280;13247;47.504;7.382;2023-05-22T05:54:15;96996.63;;;17.40;100.00
21817;BME280;13247;47.504;7.382;2023-05-22T05:57:00;96998.66;;;17.49;100.00
21817;BME280;13247;47.504;7.382;2023-05-22T05:59:44;97001.03;;;17.54;100.00
21817;BME280;13247;47.504;7.382;2023-05-22T06:02:29;97001.22;;;17.65;100.00
21817;BME280;13247;47.504;7.382;2023-05-22T06:05:13;96999.41;;;17.65;100.00
21817;BME280;13247;47.504;7.382;2023-05-22T06:08:00;96995.72;;;17.94;100.00
21817;BME280;13247;47.504;7.382;2023-05-22T06:10:45;96997.31;;;17.97;100.00
21817;BME280;13247;47.504;7.382;2023-05-22T06:13:30;96999.13;;;17.96;100.00
21817;BME280;13247;47.504;7.382;2023-05-22T06:16:15;96994.47;;;18.13;100.00
21817;BME280;13247;47.504;7.382;2023-05-22T06:19:00;97002.59;;;18.24;100.00
21817;BME280;13247;47.504;7.382;2023-05-22T06:21:44;97008.22;;;18.32;100.00
21817;BME280;13247;47.504;7.382;2023-05-22T06:24:29;97001.00;;;18.34;100.00
21817;BME280;13247;47.504;7.382;2023-05-22T06:27:15;96997.94;;;18.40;100.00
21817;BME280;13247;47.504;7.382;2023-05-22T06:30:00;97000.31;;;18.44;100.00
21817;BME280;13247;47.504;7.382;2023-05-22T06:32:46;97009.16;;;18.57;100.00
21817;BME280;13247;47.504;7.382;2023-05-22T06:35:31;97005.56;;;18.71;100.00
21817;BME280;13247;47.504;7.382;2023-05-22T06:38:16;97008.00;;;18.74;100.00
21817;BME280;13247;47.504;7.382;2023-05-22T06:41:00;97005.34;;;18.87;100.00
21817;BME280;13247;47.504;7.382;2023-05-22T06:43:45;97006.31;;;18.98;100.00
21817;BME280;13247;47.504;7.382;2023-05-22T06:46:30;97012.44;;;18.99;100.00
21817;BME280;13247;47.504;7.382;2023-05-22T06:49:15;97013.81;;;19.17;100.00
21817;BME280;13247;47.504;7.382;2023-05-22T06:52:00;97005.41;;;19.23;100.00
21817;BME280;13247;47.504;7.382;2023-05-22T06:54:44;97010.53;;;19.26;100.00
21817;BME280;13247;47.504;7.382;2023-05-22T06:57:30;97006.44;;;19.33;100.00
21817;BME280;13247;47.504;7.382;2023-05-22T07:00:15;97011.72;;;19.34;100.00
21817;BME280;13247;47.504;7.382;2023-05-22T07:03:01;97007.94;;;19.49;100.00
21817;BME280;13247;47.504;7.382;2023-05-22T07:05:46;97018.38;;;19.52;100.00
21817;BME280;13247;47.504;7.382;2023-05-22T07:08:31;97010.47;;;19.64;100.00
21817;BME280;13247;47.504;7.382;2023-05-22T07:11:16;97012.38;;;19.62;100.00
21817;BME280;13247;47.504;7.382;2023-05-22T07:14:01;97013.16;;;19.87;100.00
21817;BME280;13247;47.504;7.382;2023-05-22T07:16:46;97008.31;;;20.16;100.00
21817;BME280;13247;47.504;7.382;2023-05-22T07:19:30;97009.28;;;20.15;100.00
21817;BME280;13247;47.504;7.382;2023-05-22T07:22:15;97008.94;;;20.19;100.00
21817;BME280;13247;47.504;7.382;2023-05-22T07:24:59;97012.03;;;20.26;100.00
21817;BME280;13247;47.504;7.382;2023-05-22T07:27:44;97014.06;;;20.22;100.00
21817;BME280;13247;47.504;7.382;2023-05-22T07:30:31;97006.56;;;20.27;100.00
21817;BME280;13247;47.504;7.382;2023-05-22T07:33:15;97011.34;;;20.35;100.00
21817;BME280;13247;47.504;7.382;2023-05-22T07:36:00;97017.09;;;20.53;100.00
21817;BME280;13247;47.504;7.382;2023-05-22T07:38:44;97013.03;;;20.71;100.00
21817;BME280;13247;47.504;7.382;2023-05-22T07:41:30;97010.22;;;20.61;100.00
21817;BME280;13247;47.504;7.382;2023-05-22T07:44:14;97007.00;;;20.80;100.00
21817;BME280;13247;47.504;7.382;2023-05-22T07:46:59;97016.75;;;21.03;100.00
21817;BME280;13247;47.504;7.382;2023-05-22T07:49:44;97014.56;;;21.19;100.00
21817;BME280;13247;47.504;7.382;2023-05-22T07:52:29;97016.50;;;21.06;100.00
21817;BME280;13247;47.504;7.382;2023-05-22T07:55:14;97010.31;;;21.28;100.00
21817;BME280;13247;47.504;7.382;2023-05-22T07:58:00;97018.75;;;20.99;100.00
21817;BME280;13247;47.504;7.382;2023-05-22T08:00:47;97019.28;;;21.04;100.00
21817;BME280;13247;47.504;7.382;2023-05-22T08:03:32;97016.63;;;21.38;100.00
21817;BME280;13247;47.504;7.382;2023-05-22T08:06:16;97017.25;;;21.41;100.00
21817;BME280;13247;47.504;7.382;2023-05-22T08:09:02;97015.38;;;21.75;100.00
21817;BME280;13247;47.504;7.382;2023-05-22T08:11:48;97008.28;;;22.07;100.00
21817;BME280;13247;47.504;7.382;2023-05-22T08:14:32;97014.84;;;22.03;100.00
21817;BME280;13247;47.504;7.382;2023-05-22T08:17:17;97012.13;;;22.25;100.00
21817;BME280;13247;47.504;7.382;2023-05-22T08:20:02;97011.91;;;22.17;100.00
21817;BME280;13247;47.504;7.382;2023-05-22T08:22:48;97008.25;;;22.18;100.00
21817;BME280;13247;47.504;7.382;2023-05-22T08:25:33;97010.19;;;22.16;100.00
21817;BME280;13247;47.504;7.382;2023-05-22T08:28:18;97000.72;;;22.23;100.00
21817;BME280;13247;47.504;7.382;2023-05-22T08:31:03;97005.88;;;22.36;100.00
21817;BME280;13247;47.504;7.382;2023-05-22T08:33:47;97003.03;;;22.48;100.00
21817;BME280;13247;47.504;7.382;2023-05-22T08:36:32;97001.19;;;22.81;100.00
21817;BME280;13247;47.504;7.382;2023-05-22T08:39:17;97006.72;;;22.89;100.00
21817;BME280;13247;47.504;7.382;2023-05-22T08:42:02;97001.50;;;22.67;100.00
21817;BME280;13247;47.504;7.382;2023-05-22T08:44:47;97009.66;;;22.86;100.00
21817;BME280;13247;47.504;7.382;2023-05-22T08:47:36;97008.63;;;22.98;100.00
21817;BME280;13247;47.504;7.382;2023-05-22T08:50:24;97003.72;;;22.82;100.00
21817;BME280;13247;47.504;7.382;2023-05-22T08:53:11;97010.66;;;22.85;100.00
21817;BME280;13247;47.504;7.382;2023-05-22T08:55:59;97001.41;;;23.19;96.40
21817;BME280;13247;47.504;7.382;2023-05-22T08:58:45;97010.53;;;22.96;97.63
21817;BME280;13247;47.504;7.382;2023-05-22T09:01:31;97001.13;;;23.22;100.00
21817;BME280;13247;47.504;7.382;2023-05-22T09:04:16;96996.53;;;23.03;100.00
21817;BME280;13247;47.504;7.382;2023-05-22T09:07:01;97006.38;;;23.03;100.00
21817;BME280;13247;47.504;7.382;2023-05-22T09:09:49;97008.78;;;22.85;100.00
21817;BME280;13247;47.504;7.382;2023-05-22T09:12:33;97005.63;;;23.21;100.00
21817;BME280;13247;47.504;7.382;2023-05-22T09:15:18;97002.13;;;23.51;100.00
21817;BME280;13247;47.504;7.382;2023-05-22T09:18:05;96999.94;;;23.75;95.05
21817;BME280;13247;47.504;7.382;2023-05-22T09:20:50;96995.59;;;23.84;95.93
21817;BME280;13247;47.504;7.382;2023-05-22T09:23:35;96995.41;;;24.15;87.62
21817;BME280;13247;47.504;7.382;2023-05-22T09:26:19;96989.34;;;24.13;81.93
21817;BME280;13247;47.504;7.382;2023-05-22T09:29:05;96986.72;;;23.83;87.89
21817;BME280;13247;47.504;7.382;2023-05-22T09:31:51;96995.53;;;24.24;85.18
21817;BME280;13247;47.504;7.382;2023-05-22T09:34:35;96987.06;;;24.57;83.36
21817;BME280;13247;47.504;7.382;2023-05-22T09:37:20;96988.22;;;24.26;81.24
21817;BME280;13247;47.504;7.382;2023-05-22T09:40:06;96995.13;;;24.38;75.73
21817;BME280;13247;47.504;7.382;2023-05-22T09:42:51;96988.19;;;24.54;72.08
21817;BME280;13247;47.504;7.382;2023-05-22T09:45:37;96991.31;;;24.21;79.67
21817;BME280;13247;47.504;7.382;2023-05-22T09:48:22;96989.50;;;24.41;81.21
21817;BME280;13247;47.504;7.382;2023-05-22T09:51:07;96985.53;;;24.35;77.18
21817;BME280;13247;47.504;7.382;2023-05-22T09:54:02;96994.00;;;24.50;74.86
21817;BME280;13247;47.504;7.382;2023-05-22T09:56:48;96995.78;;;24.97;71.37
21817;BME280;13247;47.504;7.382;2023-05-22T09:59:36;96993.47;;;24.75;73.56
21817;BME280;13247;47.504;7.382;2023-05-22T10:02:25;96994.00;;;24.59;62.59
21817;BME280;13247;47.504;7.382;2023-05-22T10:05:11;96993.00;;;24.89;71.25
21817;BME280;13247;47.504;7.382;2023-05-22T10:08:09;96988.22;;;24.64;67.30
21817;BME280;13247;47.504;7.382;2023-05-22T10:10:54;96990.59;;;24.67;67.99
21817;BME280;13247;47.504;7.382;2023-05-22T10:13:40;96988.16;;;25.02;63.31
21817;BME280;13247;47.504;7.382;2023-05-22T10:16:26;96989.31;;;24.90;63.69
21817;BME280;13247;47.504;7.382;2023-05-22T10:19:11;96982.75;;;25.21;66.50
21817;BME280;13247;47.504;7.382;2023-05-22T10:21:57;96987.09;;;24.76;69.57
21817;BME280;13247;47.504;7.382;2023-05-22T10:24:48;96986.41;;;25.30;61.45
21817;BME280;13247;47.504;7.382;2023-05-22T10:27:34;96978.13;;;25.50;65.40
21817;BME280;13247;47.504;7.382;2023-05-22T10:33:18;96975.06;;;25.36;66.46
21817;BME280;13247;47.504;7.382;2023-05-22T10:36:07;96969.03;;;25.61;61.49
21817;BME280;13247;47.504;7.382;2023-05-22T10:39:06;96971.78;;;25.79;64.21
21817;BME280;13247;47.504;7.382;2023-05-22T10:41:59;96957.63;;;25.13;62.37
21817;BME280;13247;47.504;7.382;2023-05-22T10:44:47;96965.59;;;25.41;65.16
21817;BME280;13247;47.504;7.382;2023-05-22T10:47:32;96962.53;;;25.63;64.16
21817;BME280;13247;47.504;7.382;2023-05-22T10:50:17;96960.34;;;25.94;64.85
21817;BME280;13247;47.504;7.382;2023-05-22T10:53:22;96956.81;;;25.39;62.42
21817;BME280;13247;47.504;7.382;2023-05-22T10:56:12;96950.25;;;26.23;61.14
21817;BME280;13247;47.504;7.382;2023-05-22T10:59:00;96947.53;;;26.06;58.17
21817;BME280;13247;47.504;7.382;2023-05-22T11:01:59;96951.03;;;26.33;56.68
21817;BME280;13247;47.504;7.382;2023-05-22T11:04:44;96946.31;;;26.53;56.01
21817;BME280;13247;47.504;7.382;2023-05-22T11:07:40;96944.47;;;26.54;52.96
21817;BME280;13247;47.504;7.382;2023-05-22T11:10:26;96946.47;;;26.34;50.81
21817;BME280;13247;47.504;7.382;2023-05-22T11:13:11;96949.31;;;26.15;49.76
21817;BME280;13247;47.504;7.382;2023-05-22T11:15:56;96933.66;;;26.28;49.43
21817;BME280;13247;47.504;7.382;2023-05-22T11:18:42;96939.06;;;26.71;52.44
21817;BME280;13247;47.504;7.382;2023-05-22T11:21:28;96931.81;;;26.72;49.77
21817;BME280;13247;47.504;7.382;2023-05-22T11:24:15;96942.22;;;26.67;50.14
21817;BME280;13247;47.504;7.382;2023-05-22T11:27:07;96934.47;;;26.81;50.18
21817;BME280;13247;47.504;7.382;2023-05-22T11:29:53;96941.25;;;26.50;53.93
21817;BME280;13247;47.504;7.382;2023-05-22T11:32:39;96933.88;;;26.52;51.68
21817;BME280;13247;47.504;7.382;2023-05-22T11:35:27;96940.16;;;27.04;49.87
21817;BME280;13247;47.504;7.382;2023-05-22T11:38:14;96937.38;;;26.70;51.04
21817;BME280;13247;47.504;7.382;2023-05-22T11:41:00;96936.09;;;26.21;53.45
21817;BME280;13247;47.504;7.382;2023-05-22T11:43:44;96935.78;;;27.03;52.48
21817;BME280;13247;47.504;7.382;2023-05-22T11:46:29;96943.31;;;26.99;50.34
21817;BME280;13247;47.504;7.382;2023-05-22T11:49:14;96930.00;;;27.23;50.81
21817;BME280;13247;47.504;7.382;2023-05-22T11:52:00;96935.59;;;26.61;51.40
21817;BME280;13247;47.504;7.382;2023-05-22T11:54:45;96939.84;;;27.07;51.62
21817;BME280;13247;47.504;7.382;2023-05-22T11:57:31;96944.06;;;27.09;52.04
21817;BME280;13247;47.504;7.382;2023-05-22T12:00:16;96935.56;;;27.56;50.47
21817;BME280;13247;47.504;7.382;2023-05-22T12:03:01;96925.28;;;28.01;49.99
21817;BME280;13247;47.504;7.382;2023-05-22T12:05:46;96936.19;;;26.47;61.68
21817;BME280;13247;47.504;7.382;2023-05-22T12:08:30;96936.38;;;26.71;60.47
21817;BME280;13247;47.504;7.382;2023-05-22T12:11:16;96939.41;;;27.19;52.90
21817;BME280;13247;47.504;7.382;2023-05-22T12:14:02;96943.00;;;26.59;55.57
21817;BME280;13247;47.504;7.382;2023-05-22T12:16:51;96941.38;;;26.48;58.84
21817;BME280;13247;47.504;7.382;2023-05-22T12:19:39;96935.09;;;27.01;57.41
21817;BME280;13247;47.504;7.382;2023-05-22T12:22:24;96937.50;;;27.38;57.90
21817;BME280;13247;47.504;7.382;2023-05-22T12:25:16;96942.13;;;27.28;55.24
21817;BME280;13247;47.504;7.382;2023-05-22T12:28:00;96938.56;;;27.19;54.46
21817;BME280;13247;47.504;7.382;2023-05-22T12:30:45;96941.75;;;27.22;51.97
21817;BME280;13247;47.504;7.382;2023-05-22T12:33:30;96932.53;;;27.59;49.95
21817;BME280;13247;47.504;7.382;2023-05-22T12:36:15;96927.50;;;27.64;49.07
21817;BME280;13247;47.504;7.382;2023-05-22T12:38:59;96924.28;;;27.27;51.69
21817;BME280;13247;47.504;7.382;2023-05-22T12:41:45;96926.72;;;27.12;51.91
21817;BME280;13247;47.504;7.382;2023-05-22T12:44:29;96912.88;;;27.66;51.00
21817;BME280;13247;47.504;7.382;2023-05-22T12:47:14;96923.25;;;27.53;50.18
21817;BME280;13247;47.504;7.382;2023-05-22T12:49:58;96937.22;;;27.49;51.37
21817;BME280;13247;47.504;7.382;2023-05-22T12:52:43;96921.59;;;28.02;50.43
21817;BME280;13247;47.504;7.382;2023-05-22T12:55:28;96908.56;;;27.89;48.99
21817;BME280;13247;47.504;7.382;2023-05-22T12:58:13;96899.34;;;28.08;50.43
21817;BME280;13247;47.504;7.382;2023-05-22T13:00:58;96907.47;;;28.64;49.04
21817;BME280;13247;47.504;7.382;2023-05-22T13:03:44;96906.44;;;28.17;50.05
21817;BME280;13247;47.504;7.382;2023-05-22T13:06:29;96890.94;;;28.35;48.31
21817;BME280;13247;47.504;7.382;2023-05-22T13:09:14;96888.56;;;28.08;47.24
21817;BME280;13247;47.504;7.382;2023-05-22T13:12:00;96887.41;;;27.61;50.48
21817;BME280;13247;47.504;7.382;2023-05-22T13:14:44;96895.97;;;27.22;52.47
21817;BME280;13247;47.504;7.382;2023-05-22T13:17:29;96904.72;;;26.65;52.41
21817;BME280;13247;47.504;7.382;2023-05-22T13:20:13;96909.34;;;27.32;50.34
21817;BME280;13247;47.504;7.382;2023-05-22T13:22:58;96910.19;;;27.33;50.43
21817;BME280;13247;47.504;7.382;2023-05-22T13:25:43;96908.50;;;27.32;48.93
21817;BME280;13247;47.504;7.382;2023-05-22T13:28:27;96906.41;;;27.51;47.09
21817;BME280;13247;47.504;7.382;2023-05-22T13:31:12;96906.66;;;27.74;48.93
21817;BME280;13247;47.504;7.382;2023-05-22T13:33:57;96911.53;;;28.60;46.82
21817;BME280;13247;47.504;7.382;2023-05-22T13:36:42;96901.38;;;28.46;49.69
21817;BME280;13247;47.504;7.382;2023-05-22T13:39:26;96891.53;;;27.89;46.07
21817;BME280;13247;47.504;7.382;2023-05-22T13:42:11;96895.84;;;26.90;45.97
21817;BME280;13247;47.504;7.382;2023-05-22T13:44:55;96896.31;;;27.19;50.97
21817;BME280;13247;47.504;7.382;2023-05-22T13:47:40;96882.69;;;27.55;49.72
21817;BME280;13247;47.504;7.382;2023-05-22T13:50:24;96879.69;;;27.74;48.14
21817;BME280;13247;47.504;7.382;2023-05-22T13:53:18;96875.63;;;26.86;52.97
21817;BME280;13247;47.504;7.382;2023-05-22T13:56:03;96870.53;;;27.43;50.95
21817;BME280;13247;47.504;7.382;2023-05-22T13:58:48;96876.84;;;27.34;48.49
21817;BME280;13247;47.504;7.382;2023-05-22T14:01:32;96868.06;;;27.23;49.05
21817;BME280;13247;47.504;7.382;2023-05-22T14:04:17;96869.56;;;26.84;50.92
21817;BME280;13247;47.504;7.382;2023-05-22T14:07:01;96866.72;;;27.28;50.97
21817;BME280;13247;47.504;7.382;2023-05-22T14:09:46;96863.78;;;27.39;50.92
21817;BME280;13247;47.504;7.382;2023-05-22T14:12:31;96872.28;;;27.68;49.74
21817;BME280;13247;47.504;7.382;2023-05-22T14:15:15;96870.84;;;28.06;46.44
21817;BME280;13247;47.504;7.382;2023-05-22T14:18:00;96872.19;;;28.10;49.28
21817;BME280;13247;47.504;7.382;2023-05-22T14:20:45;96875.41;;;27.97;47.25
21817;BME280;13247;47.504;7.382;2023-05-22T14:23:30;96879.56;;;27.91;45.69
21817;BME280;13247;47.504;7.382;2023-05-22T14:26:15;96875.03;;;27.92;46.20
21817;BME280;13247;47.504;7.382;2023-05-22T14:29:02;96876.25;;;27.48;48.36
21817;BME280;13247;47.504;7.382;2023-05-22T14:31:48;96884.16;;;27.41;49.52
21817;BME280;13247;47.504;7.382;2023-05-22T14:34:32;96879.13;;;27.54;48.48
21817;BME280;13247;47.504;7.382;2023-05-22T14:37:17;96882.66;;;27.47;49.37
21817;BME280;13247;47.504;7.382;2023-05-22T14:40:02;96877.97;;;27.65;49.13
21817;BME280;13247;47.504;7.382;2023-05-22T14:42:47;96887.16;;;27.04;54.75
21817;BME280;13247;47.504;7.382;2023-05-22T14:45:32;96885.16;;;27.06;59.60